createdAt,value
2019-04-16T00:01:42.377Z,8.03
2019-04-16T00:19:25.736Z,6.83
2019-04-16T00:22:02.523Z,7.20
2019-04-16T00:24:33.601Z,7.93
2019-04-16T00:27:03.926Z,8.47
2019-04-16T00:29:39.428Z,8.10
2019-04-16T00:32:09.094Z,7.33
2019-04-16T00:34:36.957Z,8.20
2019-04-16T00:37:07.296Z,8.60
2019-04-16T00:39:37.609Z,8.13
2019-04-16T00:42:10.997Z,8.50
2019-04-16T00:44:43.377Z,8.03
2019-04-16T00:47:13.693Z,7.70
2019-04-16T00:49:44.012Z,7.57
2019-04-16T00:52:15.376Z,7.93
2019-04-16T00:54:53.004Z,8.10
2019-04-16T00:57:23.355Z,7.40
2019-04-16T00:59:56.125Z,7.63
2019-04-16T01:02:24.764Z,7.87
2019-04-16T01:04:59.203Z,8.40
2019-04-16T01:07:29.526Z,7.53
2019-04-16T01:09:59.844Z,7.17
2019-04-16T01:12:32.240Z,6.97
2019-04-16T01:15:02.563Z,6.83
2019-04-16T01:17:33.410Z,7.50
2019-04-16T01:20:03.224Z,7.87
2019-04-16T01:22:35.583Z,6.77
2019-04-16T01:25:05.899Z,8.00
2019-04-16T01:27:36.239Z,7.07
2019-04-16T01:30:06.869Z,7.67
2019-04-16T01:32:54.588Z,7.60
2019-04-16T01:35:30.508Z,6.63
2019-04-16T01:38:15.767Z,6.77
2019-04-16T01:40:50.096Z,7.17
2019-04-16T01:43:37.260Z,7.57
2019-04-16T01:46:07.576Z,7.33
2019-04-16T01:48:38.937Z,9.00
2019-04-16T01:51:29.658Z,8.73
2019-04-16T01:53:59.973Z,8.27
2019-04-16T01:56:30.286Z,8.13
2019-04-16T01:59:04.544Z,7.43
2019-04-16T02:01:30.943Z,8.40
2019-04-16T02:04:01.259Z,8.63
2019-04-16T02:06:31.622Z,8.57
2019-04-16T02:09:03.161Z,8.27
2019-04-16T02:11:33.024Z,7.63
2019-04-16T02:14:03.371Z,6.87
2019-04-16T02:16:34.718Z,7.87
2019-04-16T02:19:05.032Z,7.67
2019-04-16T02:21:35.615Z,7.93
2019-04-16T02:24:05.936Z,9.07
2019-04-16T02:26:36.256Z,9.40
2019-04-16T02:29:06.593Z,9.17
2019-04-16T02:31:36.913Z,8.40
2019-04-16T02:34:07.301Z,9.77
2019-04-16T02:36:37.576Z,9.77
2019-04-16T02:39:08.907Z,9.50
2019-04-16T02:41:39.221Z,8.77
2019-04-16T02:44:14.180Z,8.97
2019-04-16T02:46:39.891Z,8.83
2019-04-16T02:49:10.984Z,9.63
2019-04-16T02:51:44.040Z,8.37
2019-04-16T02:54:22.655Z,9.00
2019-04-16T02:56:53.756Z,8.77
2019-04-16T02:59:29.877Z,8.13
2019-04-16T03:02:09.016Z,8.43
2019-04-16T03:04:39.336Z,7.37
2019-04-16T03:07:09.666Z,7.37
2019-04-16T03:09:41.102Z,8.00
2019-04-16T03:12:11.366Z,8.13
2019-04-16T03:14:43.728Z,8.37
2019-04-16T03:17:21.825Z,7.07
2019-04-16T03:19:55.832Z,6.17
2019-04-16T03:22:26.152Z,6.83
2019-04-16T03:24:56.496Z,6.70
2019-04-16T03:27:30.900Z,6.43
2019-04-16T03:30:03.523Z,7.47
2019-04-16T03:32:35.218Z,6.97
2019-04-16T03:35:04.152Z,7.57
2019-04-16T03:37:34.275Z,7.67
2019-04-16T03:40:16.105Z,7.93
2019-04-16T03:42:36.997Z,7.87
2019-04-16T03:45:09.390Z,8.30
2019-04-16T03:47:37.671Z,8.47
2019-04-16T03:50:07.994Z,8.37
2019-04-16T03:52:40.908Z,8.30
2019-04-16T03:55:08.660Z,8.13
2019-04-16T03:57:38.986Z,8.43
2019-04-16T04:00:12.465Z,8.47
2019-04-16T04:02:40.419Z,8.87
2019-04-16T04:05:10.743Z,9.07
2019-04-16T04:07:44.250Z,9.17
2019-04-16T04:10:12.568Z,9.33
2019-04-16T04:12:45.802Z,9.83
2019-04-16T04:15:14.235Z,9.70
2019-04-16T04:17:44.580Z,10.13
2019-04-16T04:20:18.149Z,9.27
2019-04-16T04:22:45.216Z,9.63
2019-04-16T04:25:15.802Z,9.67
2019-04-16T04:27:46.703Z,9.63
2019-04-16T04:33:00.148Z,10.67
2019-04-16T04:35:31.487Z,10.03
2019-04-16T04:38:04.169Z,10.90
2019-04-16T04:40:43.763Z,10.17
2019-04-16T04:43:04.424Z,10.40
2019-04-16T04:45:37.658Z,10.77
2019-04-16T04:48:07.128Z,10.23
2019-04-16T04:50:43.830Z,10.10
2019-04-16T04:53:15.650Z,11.17
2019-04-16T04:55:44.501Z,10.30
2019-04-16T04:58:14.971Z,10.17
2019-04-16T05:00:45.159Z,10.20
2019-04-16T05:03:34.295Z,10.73
2019-04-16T05:06:04.637Z,10.10
2019-04-16T05:08:34.956Z,10.93
2019-04-16T05:11:05.272Z,11.47
2019-04-16T05:13:35.617Z,10.17
2019-04-16T05:16:07.133Z,11.03
2019-04-16T05:18:41.404Z,10.77
2019-04-16T05:21:07.357Z,10.47
2019-04-16T05:23:37.872Z,11.07
2019-04-16T05:26:09.810Z,11.20
2019-04-16T05:28:38.329Z,10.63
2019-04-16T05:31:08.647Z,11.33
2019-04-16T05:33:38.969Z,10.67
2019-04-16T05:36:11.079Z,11.47
2019-04-16T05:38:40.387Z,11.10
2019-04-16T05:41:13.480Z,10.80
2019-04-16T05:43:41.054Z,10.97
2019-04-16T05:46:11.619Z,10.90
2019-04-16T05:48:41.933Z,10.77
2019-04-16T05:51:12.321Z,10.70
2019-04-16T05:53:42.605Z,11.03
2019-04-16T05:56:12.928Z,12.13
2019-04-16T05:58:43.267Z,11.43
2019-04-16T06:01:14.155Z,11.00
2019-04-16T06:03:43.912Z,11.80
2019-04-16T06:06:14.240Z,11.50
2019-04-16T06:09:11.827Z,11.93
2019-04-16T06:11:37.861Z,11.50
2019-04-16T06:14:16.770Z,11.83
2019-04-16T06:16:42.067Z,12.73
2019-04-16T06:19:17.878Z,11.60
2019-04-16T06:22:00.967Z,12.07
2019-04-16T06:24:32.336Z,14.95
2019-04-16T06:27:07.138Z,12.40
2019-04-16T06:29:52.188Z,11.03
2019-04-16T06:32:46.351Z,11.73
2019-04-16T06:35:43.196Z,11.37
2019-04-16T06:38:11.725Z,11.20
2019-04-16T06:40:51.119Z,11.13
2019-04-16T06:43:25.474Z,10.90
2019-04-16T06:46:00.836Z,12.10
2019-04-16T06:48:31.162Z,10.90
2019-04-16T06:51:19.244Z,11.77
2019-04-16T06:54:07.252Z,11.37
2019-04-16T06:56:41.085Z,11.13
2019-04-16T06:59:11.338Z,10.80
2019-04-16T07:01:56.896Z,17.42
2019-04-16T07:04:39.000Z,13.53
2019-04-16T07:07:11.900Z,11.70
2019-04-16T07:09:46.330Z,12.33
2019-04-16T07:12:17.696Z,11.40
2019-04-16T07:14:49.041Z,12.03
2019-04-16T07:17:18.876Z,11.63
2019-04-16T07:19:48.694Z,11.63
2019-04-16T07:22:21.316Z,10.83
2019-04-16T07:24:50.417Z,11.47
2019-04-16T07:27:21.415Z,11.50
2019-04-16T07:29:51.819Z,11.27
2019-04-16T07:32:27.433Z,11.90
2019-04-16T07:35:09.566Z,12.27
2019-04-16T07:40:32.021Z,11.23
2019-04-16T07:43:22.453Z,11.30
2019-04-16T07:46:07.878Z,11.33
2019-04-16T07:48:56.020Z,11.47
2019-04-16T07:51:44.551Z,11.63
2019-04-16T07:54:14.900Z,11.50
2019-04-16T07:56:49.315Z,12.27
2019-04-16T07:59:19.635Z,11.80
2019-04-16T08:01:49.981Z,11.10
2019-04-16T08:04:41.749Z,11.83
2019-04-16T08:07:12.092Z,11.90
2019-04-16T08:09:43.176Z,11.60
2019-04-16T08:12:29.247Z,13.47
2019-04-16T08:14:45.881Z,11.97
2019-04-16T08:17:19.260Z,12.80
2019-04-16T08:19:49.607Z,12.43
2019-04-16T08:22:19.972Z,12.03
2019-04-16T08:24:59.754Z,11.87
2019-04-16T08:27:26.311Z,11.47
2019-04-16T08:30:03.362Z,11.77
2019-04-16T08:32:34.197Z,12.73
2019-04-16T08:35:06.496Z,13.00
2019-04-16T08:37:48.854Z,12.47
2019-04-16T08:40:13.155Z,12.77
2019-04-16T08:42:44.626Z,12.67
2019-04-16T08:45:12.956Z,12.40
2019-04-16T08:47:58.292Z,12.67
2019-04-16T08:50:33.758Z,12.73
2019-04-16T08:53:04.086Z,12.10
2019-04-16T08:55:34.418Z,13.57
2019-04-16T08:58:07.132Z,12.57
2019-04-16T09:00:36.101Z,13.17
2019-04-16T09:03:06.429Z,12.27
2019-04-16T09:05:41.263Z,12.97
2019-04-16T09:08:23.483Z,11.50
2019-04-16T09:10:54.616Z,12.77
2019-04-16T09:13:27.551Z,12.77
2019-04-16T09:16:00.050Z,12.40
2019-04-16T09:18:30.281Z,12.87
2019-04-16T09:21:00.605Z,12.50
2019-04-16T09:23:30.938Z,12.60
2019-04-16T09:26:13.573Z,11.17
2019-04-16T09:28:40.031Z,12.93
2019-04-16T09:31:10.406Z,13.20
2019-04-16T09:33:43.156Z,13.63
2019-04-16T09:36:22.409Z,13.07
2019-04-16T09:38:55.452Z,13.50
2019-04-16T09:41:28.201Z,13.60
2019-04-16T09:43:58.627Z,14.23
2019-04-16T09:46:49.754Z,12.43
2019-04-16T09:48:59.234Z,12.57
2019-04-16T09:51:29.594Z,13.33
2019-04-16T09:53:59.928Z,13.30
2019-04-16T09:56:30.553Z,12.70
2019-04-16T09:59:00.622Z,13.00
2019-04-16T10:04:20.927Z,12.77
2019-04-16T10:06:51.261Z,12.77
2019-04-16T10:09:22.563Z,13.07
2019-04-16T10:11:51.942Z,13.20
2019-04-16T10:14:26.371Z,12.03
2019-04-16T10:17:01.837Z,13.33
2019-04-16T10:19:32.167Z,13.83
2019-04-16T10:22:02.513Z,12.30
2019-04-16T10:24:52.787Z,13.33
2019-04-16T10:27:38.296Z,13.27
2019-04-16T10:30:20.262Z,13.43
2019-04-16T10:32:52.658Z,11.97
2019-04-16T10:35:23.000Z,12.23
2019-04-16T10:37:53.364Z,11.37
2019-04-16T10:40:28.816Z,13.83
2019-04-16T10:42:59.170Z,13.57
2019-04-16T10:45:30.330Z,13.63
2019-04-16T10:48:22.806Z,12.27
2019-04-16T10:50:59.177Z,13.30
2019-04-16T10:54:01.692Z,13.13
2019-04-16T10:56:49.747Z,13.63
2019-04-16T10:59:38.174Z,13.03
2019-04-16T11:02:28.711Z,14.03
2019-04-16T11:05:02.186Z,13.13
2019-04-16T11:07:37.448Z,12.47
2019-04-16T11:10:11.674Z,13.83
2019-04-16T11:12:38.906Z,13.33
2019-04-16T11:15:10.282Z,13.80
2019-04-16T11:17:40.609Z,13.17
2019-04-16T11:20:10.965Z,14.17
2019-04-16T11:22:41.265Z,13.30
2019-04-16T11:25:11.642Z,12.97
2019-04-16T11:27:42.029Z,12.60
2019-04-16T11:30:12.304Z,12.47
2019-04-16T11:32:42.658Z,12.60
2019-04-16T11:35:16.731Z,12.80
2019-04-16T11:37:44.561Z,13.00
2019-04-16T11:40:13.706Z,13.83
2019-04-16T11:42:44.126Z,12.83
2019-04-16T11:45:14.355Z,12.97
2019-04-16T11:47:48.040Z,12.97
2019-04-16T11:50:15.024Z,13.40
2019-04-16T11:52:46.110Z,14.13
2019-04-16T11:55:18.503Z,13.27
2019-04-16T11:57:48.897Z,13.97
2019-04-16T12:00:34.288Z,13.47
2019-04-16T12:03:25.741Z,12.27
2019-04-16T12:05:58.116Z,11.17
2019-04-16T12:08:28.510Z,12.60
2019-04-16T12:14:32.387Z,11.67
2019-04-16T12:16:57.585Z,12.93
2019-04-16T12:19:45.855Z,11.93
2019-04-16T12:22:16.211Z,11.87
2019-04-16T12:24:52.142Z,11.67
2019-04-16T12:27:34.945Z,12.53
2019-04-16T12:30:20.044Z,11.80
2019-04-16T12:32:59.309Z,11.17
2019-04-16T12:35:47.521Z,11.80
2019-04-16T12:38:18.757Z,11.33
2019-04-16T12:40:49.268Z,11.50
2019-04-16T12:43:25.379Z,11.67
2019-04-16T12:46:13.795Z,12.10
2019-04-16T12:48:52.763Z,11.70
2019-04-16T12:51:40.995Z,12.13
2019-04-16T12:54:11.247Z,11.90
2019-04-16T12:56:43.959Z,11.03
2019-04-16T12:59:22.103Z,10.17
2019-04-16T13:02:06.076Z,11.27
2019-04-16T13:04:51.232Z,10.73
2019-04-16T13:07:23.907Z,10.80
2019-04-16T13:09:56.904Z,10.60
2019-04-16T13:12:57.307Z,10.80
2019-04-16T13:15:27.886Z,11.53
2019-04-16T13:18:00.644Z,11.67
2019-04-16T13:20:36.703Z,11.07
2019-04-16T13:23:45.619Z,11.63
2019-04-16T13:26:18.684Z,11.03
2019-04-16T13:28:49.010Z,12.33
2019-04-16T13:31:19.341Z,10.97
2019-04-16T13:33:50.960Z,10.97
2019-04-16T13:36:27.824Z,11.50
2019-04-16T13:38:56.578Z,10.53
2019-04-16T13:41:27.156Z,10.60
2019-04-16T13:44:09.963Z,9.93
2019-04-16T13:46:39.773Z,10.70
2019-04-16T13:49:13.698Z,10.07
2019-04-16T13:51:44.993Z,9.97
2019-04-16T13:54:28.160Z,9.90
2019-04-16T13:56:59.508Z,9.30
2019-04-16T13:59:31.105Z,9.03
2019-04-16T14:02:00.162Z,10.87
2019-04-16T14:04:31.688Z,9.40
2019-04-16T14:07:00.830Z,9.60
2019-04-16T14:09:31.152Z,9.47
2019-04-16T14:12:01.491Z,9.57
2019-04-16T14:14:32.578Z,9.67
2019-04-16T14:17:09.781Z,9.47
2019-04-16T14:19:38.785Z,9.00
2019-04-16T14:22:08.684Z,9.53
2019-04-16T14:24:44.366Z,9.13
2019-04-16T14:27:14.714Z,9.30
2019-04-16T14:29:45.037Z,9.20
2019-04-16T14:32:15.360Z,9.87
2019-04-16T14:34:49.322Z,8.83
2019-04-16T14:37:25.935Z,14.10
2019-04-16T14:40:02.313Z,9.80
2019-04-16T14:42:32.503Z,10.40
2019-04-16T14:45:20.652Z,9.77
2019-04-16T14:47:54.046Z,10.20
2019-04-16T14:50:24.639Z,9.80
2019-04-16T14:52:54.716Z,9.77
2019-04-16T14:55:30.714Z,10.30
2019-04-16T14:58:22.949Z,9.70
2019-04-16T15:00:59.276Z,9.33
2019-04-16T15:03:29.500Z,8.90
2019-04-16T15:06:09.306Z,9.30
2019-04-16T15:08:58.907Z,7.87
2019-04-16T15:11:31.499Z,8.77
2019-04-16T15:14:03.808Z,9.13
2019-04-16T15:16:52.099Z,6.80
2019-04-16T15:19:25.988Z,8.27
2019-04-16T15:22:16.259Z,8.67
2019-04-16T15:24:47.602Z,9.03
2019-04-16T15:30:11.491Z,8.40
2019-04-16T15:32:41.809Z,8.13
2019-04-16T15:35:26.893Z,7.53
2019-04-16T15:38:11.934Z,8.63
2019-04-16T15:40:46.789Z,8.00
2019-04-16T15:43:19.315Z,7.97
2019-04-16T15:45:49.537Z,7.70
2019-04-16T15:48:37.887Z,7.60
2019-04-16T15:51:13.559Z,7.80
2019-04-16T15:53:38.539Z,7.43
2019-04-16T15:56:11.489Z,7.83
2019-04-16T15:58:41.811Z,7.57
2019-04-16T16:01:12.134Z,6.50
2019-04-16T16:03:42.475Z,6.63
2019-04-16T16:06:20.329Z,7.33
2019-04-16T16:08:47.941Z,6.77
2019-04-16T16:11:22.370Z,6.23
2019-04-16T16:14:11.985Z,7.13
2019-04-16T16:16:42.466Z,6.47
2019-04-16T16:19:12.648Z,6.23
2019-04-16T16:21:43.917Z,6.03
2019-04-16T16:24:14.262Z,6.33
2019-04-16T16:26:50.770Z,6.07
2019-04-16T16:29:21.053Z,5.83
2019-04-16T16:31:57.499Z,6.03
2019-04-16T16:34:27.835Z,5.47
2019-04-16T16:36:59.174Z,6.20
2019-04-16T16:39:29.492Z,5.83
2019-04-16T16:41:59.829Z,5.73
2019-04-16T16:44:30.401Z,5.60
2019-04-16T16:47:18.727Z,5.43
2019-04-16T16:49:51.165Z,6.00
2019-04-16T16:52:39.409Z,6.57
2019-04-16T16:55:09.663Z,6.23
2019-04-16T16:57:50.011Z,6.47
2019-04-16T17:00:20.727Z,6.53
2019-04-16T17:02:50.651Z,7.20
2019-04-16T17:05:26.700Z,6.40
2019-04-16T17:07:57.017Z,6.10
2019-04-16T17:10:28.100Z,6.33
2019-04-16T17:13:02.541Z,6.37
2019-04-16T17:15:33.296Z,5.87
2019-04-16T17:18:03.543Z,6.07
2019-04-16T17:20:34.659Z,5.83
2019-04-16T17:23:04.977Z,6.70
2019-04-16T17:25:36.791Z,6.17
2019-04-16T17:28:05.889Z,5.87
2019-04-16T17:30:36.210Z,6.43
2019-04-16T17:33:06.532Z,6.30
2019-04-16T17:35:36.876Z,6.60
2019-04-16T17:38:09.247Z,6.77
2019-04-16T17:40:42.343Z,6.40
2019-04-16T17:43:17.216Z,6.37
2019-04-16T17:45:50.320Z,6.67
2019-04-16T17:48:20.932Z,6.13
2019-04-16T17:51:08.780Z,6.37
2019-04-16T17:53:47.962Z,6.50
2019-04-16T17:56:30.423Z,7.60
2019-04-16T17:59:11.467Z,6.97
2019-04-16T18:01:47.502Z,6.57
2019-04-16T18:04:36.061Z,6.73
2019-04-16T18:07:13.987Z,6.07
2019-04-16T18:09:44.319Z,5.90
2019-04-16T18:12:32.402Z,6.53
2019-04-16T18:15:08.932Z,5.83
2019-04-16T18:17:53.729Z,6.37
2019-04-16T18:20:24.716Z,6.83
2019-04-16T18:22:57.502Z,6.93
2019-04-16T18:25:55.537Z,7.00
2019-04-16T18:28:22.122Z,6.87
2019-04-16T18:30:57.997Z,6.23
2019-04-16T18:36:41.682Z,7.17
2019-04-16T18:39:17.836Z,6.60
2019-04-16T18:41:48.986Z,7.30
2019-04-16T18:44:37.980Z,7.07
2019-04-16T18:47:11.299Z,6.87
2019-04-16T18:49:41.582Z,7.00
2019-04-16T18:52:12.730Z,7.57
2019-04-16T18:54:49.408Z,7.60
2019-04-16T18:57:17.422Z,6.93
2019-04-16T18:59:47.743Z,7.47
2019-04-16T19:02:18.099Z,8.27
2019-04-16T19:04:50.882Z,7.80
2019-04-16T19:07:18.730Z,7.73
2019-04-16T19:09:49.092Z,8.13
2019-04-16T19:12:20.181Z,8.37
2019-04-16T19:14:52.543Z,7.53
2019-04-16T19:17:23.908Z,7.03
2019-04-16T19:19:54.278Z,7.33
2019-04-16T19:22:25.578Z,8.43
2019-04-16T19:24:57.963Z,7.27
2019-04-16T19:27:30.829Z,7.40
2019-04-16T19:29:58.596Z,8.23
2019-04-16T19:32:35.160Z,7.70
2019-04-16T19:35:10.619Z,6.40
2019-04-16T19:37:34.709Z,6.50
2019-04-16T19:40:05.062Z,7.60
2019-04-16T19:42:35.375Z,7.37
2019-04-16T19:45:11.424Z,6.00
2019-04-16T19:47:36.041Z,6.67
2019-04-16T19:50:06.361Z,6.73
2019-04-16T19:52:37.450Z,6.20
2019-04-16T19:55:12.414Z,6.77
2019-04-16T19:57:39.140Z,5.83
2019-04-16T20:00:09.463Z,6.57
2019-04-16T20:02:41.862Z,6.83
2019-04-16T20:05:12.185Z,6.80
2019-04-16T20:07:42.536Z,7.60
2019-04-16T20:10:13.661Z,8.47
2019-04-16T20:12:43.979Z,7.37
2019-04-16T20:15:14.302Z,6.87
2019-04-16T20:17:44.678Z,6.73
2019-04-16T20:20:15.877Z,6.13
2019-04-16T20:22:46.194Z,5.80
2019-04-16T20:25:16.539Z,5.73
2019-04-16T20:27:46.861Z,4.73
2019-04-16T20:30:17.192Z,5.50
2019-04-16T20:32:47.533Z,5.57
2019-04-16T20:35:19.080Z,5.80
2019-04-16T20:37:50.488Z,5.33
2019-04-16T20:40:19.280Z,5.73
2019-04-16T20:42:49.595Z,5.20
2019-04-16T20:45:24.000Z,5.73
2019-04-16T20:47:58.518Z,5.50
2019-04-16T20:50:28.761Z,5.70
2019-04-16T20:53:20.520Z,5.33
2019-04-16T20:55:50.831Z,5.57
2019-04-16T20:58:21.148Z,5.47
2019-04-16T21:00:51.492Z,6.43
2019-04-16T21:03:22.828Z,7.37
2019-04-16T21:05:59.221Z,6.60
2019-04-16T21:08:25.071Z,6.40
2019-04-16T21:10:52.789Z,5.53
2019-04-16T21:13:23.116Z,6.03
2019-04-16T21:15:53.467Z,5.80
2019-04-16T21:18:23.786Z,6.27
2019-04-16T21:20:54.876Z,6.67
2019-04-16T21:23:28.044Z,6.17
2019-04-16T21:25:58.365Z,6.13
2019-04-16T21:28:28.682Z,5.63
2019-04-16T21:31:08.290Z,6.00
2019-04-16T21:33:38.355Z,5.10
2019-04-16T21:36:11.151Z,5.40
2019-04-16T21:38:42.314Z,5.23
2019-04-16T21:41:13.846Z,4.97
2019-04-16T21:43:44.181Z,4.77
2019-04-16T21:46:20.193Z,5.00
2019-04-16T21:48:49.943Z,5.13
2019-04-16T21:51:24.106Z,5.40
2019-04-16T21:53:50.604Z,6.50
2019-04-16T21:56:27.072Z,6.73
2019-04-16T21:59:00.487Z,6.57
2019-04-16T22:01:42.449Z,6.20
2019-04-16T22:04:14.460Z,6.50
2019-04-16T22:06:43.118Z,5.90
2019-04-16T22:09:14.453Z,5.70
2019-04-16T22:11:44.807Z,6.50
2019-04-16T22:14:15.118Z,5.63
2019-04-16T22:16:45.443Z,5.97
2019-04-16T22:19:15.785Z,6.27
2019-04-16T22:21:46.096Z,6.17
2019-04-16T22:24:22.886Z,6.20
2019-04-16T22:26:51.155Z,5.67
2019-04-16T22:29:27.629Z,5.87
2019-04-16T22:32:18.340Z,5.90
2019-04-16T22:34:48.685Z,6.47
2019-04-16T22:37:19.002Z,5.93
2019-04-16T22:39:52.012Z,6.43
2019-04-16T22:42:39.907Z,6.33
2019-04-16T22:45:10.223Z,6.63
2019-04-16T22:50:26.297Z,6.33
2019-04-16T22:52:57.618Z,6.80
2019-04-16T22:55:27.936Z,6.40
2019-04-16T22:57:59.823Z,6.73
2019-04-16T23:00:31.521Z,6.13
2019-04-16T23:03:03.910Z,6.90
2019-04-16T23:05:39.344Z,6.80
2019-04-16T23:08:13.072Z,6.87
2019-04-16T23:10:43.064Z,6.77
2019-04-16T23:13:13.373Z,6.27
2019-04-16T23:15:43.717Z,6.60
2019-04-16T23:18:17.505Z,6.27
2019-04-16T23:20:46.400Z,6.33
2019-04-16T23:23:19.050Z,7.03
2019-04-16T23:25:47.059Z,7.23
2019-04-16T23:28:17.370Z,7.13
2019-04-16T23:30:48.039Z,6.93
2019-04-16T23:33:18.030Z,7.70
2019-04-16T23:35:48.347Z,6.87
2019-04-16T23:38:18.689Z,7.70
2019-04-16T23:40:50.031Z,6.93
2019-04-16T23:43:38.223Z,7.57
2019-04-16T23:46:26.495Z,7.23
2019-04-16T23:49:06.370Z,7.60
2019-04-16T23:51:36.688Z,7.07
2019-04-16T23:54:08.007Z,7.57
2019-04-16T23:56:37.353Z,6.50
2019-04-16T23:59:28.510Z,6.90
